Time;durP1;ratioP1;P1;durP2;ratioP2;P2;SDS_P1;SDS_P2;PMS_P1;PMS_P2;Temp;Humidity;BMP_temperature;BMP_pressure;BME280_temperature;BME280_humidity;BME280_pressure;Samples;Min_cycle;Max_cycle;Signal;HPM_P1;HPM_P2
2021/12/10 00:01:49;;;;;;;40.25;21.95;;;8.00;90.80;;;;;;5055826;28;20112;-45
2021/12/10 00:04:18;;;;;;;46.33;23.95;;;8.00;90.80;;;;;;5055773;28;20091;-34
2021/12/10 00:06:54;;;;;;;41.92;23.50;;;8.00;90.90;;;;;;5056341;28;20029;-45
2021/12/10 00:09:31;;;;;;;42.83;22.42;;;8.00;90.90;;;;;;5055917;28;20353;-33
2021/12/10 00:12:03;;;;;;;48.65;27.17;;;8.00;91.10;;;;;;5055908;28;20299;-32
2021/12/10 00:14:31;;;;;;;45.42;24.98;;;8.00;91.20;;;;;;5055778;28;20417;-33
2021/12/10 00:16:59;;;;;;;43.03;23.27;;;8.10;91.30;;;;;;5055840;28;20032;-33
2021/12/10 00:19:35;;;;;;;42.67;23.85;;;8.10;91.20;;;;;;5055862;28;20135;-33
2021/12/10 00:22:06;;;;;;;41.38;24.70;;;8.10;91.30;;;;;;5056161;28;20103;-45
2021/12/10 00:24:32;;;;;;;47.65;25.98;;;8.10;91.40;;;;;;5055757;28;20063;-44
2021/12/10 00:27:04;;;;;;;42.38;23.65;;;8.10;91.40;;;;;;5055627;28;20025;-45
2021/12/10 00:29:30;;;;;;;41.67;24.30;;;8.10;91.40;;;;;;5055497;28;20033;-45
2021/12/10 00:32:03;;;;;;;44.15;24.70;;;8.10;91.40;;;;;;5055136;28;20033;-33
2021/12/10 00:34:35;;;;;;;47.35;24.52;;;8.20;91.40;;;;;;5059844;28;20067;-45
2021/12/10 00:37:09;;;;;;;44.70;25.15;;;8.20;91.70;;;;;;5059778;28;20317;-32
2021/12/10 00:39:42;;;;;;;46.60;26.63;;;8.20;91.50;;;;;;5059599;28;20033;-45
2021/12/10 00:42:12;;;;;;;50.80;25.85;;;8.20;91.50;;;;;;5060095;28;20298;-32
2021/12/10 00:44:38;;;;;;;58.40;32.60;;;8.20;91.40;;;;;;5059312;28;20463;-33
2021/12/10 00:47:04;;;;;;;63.75;34.17;;;8.20;91.40;;;;;;5059227;28;20029;-33
2021/12/10 00:49:31;;;;;;;87.47;49.67;;;8.20;91.40;;;;;;5059062;28;20041;-45
2021/12/10 00:51:57;;;;;;;86.80;49.85;;;8.20;91.50;;;;;;5059499;28;20025;-45
2021/12/10 00:54:22;;;;;;;96.15;58.45;;;8.20;91.50;;;;;;5059395;28;20067;-45
2021/12/10 00:56:48;;;;;;;101.78;60.90;;;8.20;91.50;;;;;;5059420;28;20321;-32
2021/12/10 00:59:15;;;;;;;98.50;56.90;;;8.20;91.70;;;;;;5059313;28;20142;-45
2021/12/10 01:01:42;;;;;;;92.43;54.70;;;8.20;91.70;;;;;;5059326;28;20036;-45
2021/12/10 01:04:29;;;;;;;95.97;56.75;;;8.20;91.70;;;;;;5059082;28;20087;-44
2021/12/10 01:06:58;;;;;;;90.90;53.63;;;8.20;91.70;;;;;;5059460;28;20037;-44
2021/12/10 01:09:28;;;;;;;94.85;54.67;;;8.20;91.80;;;;;;5058959;28;20040;-45
2021/12/10 01:12:02;;;;;;;81.23;49.90;;;8.20;91.90;;;;;;5059168;28;20119;-33
2021/12/10 01:15:34;;;;;;;74.93;44.67;;;8.20;91.90;;;;;;5059082;28;20273;-32
2021/12/10 01:26:09;;;;;;;52.33;28.85;;;8.30;91.90;;;;;;5059068;28;20444;-33
2021/12/10 01:28:42;;;;;;;50.10;27.83;;;8.30;91.90;;;;;;5058696;28;20425;-34
2021/12/10 01:31:09;;;;;;;50.40;28.23;;;8.30;91.90;;;;;;5058897;28;20052;-44
2021/12/10 01:33:35;;;;;;;49.20;26.58;;;8.30;91.90;;;;;;5057217;28;20390;-32
2021/12/10 01:36:06;;;;;;;52.42;28.02;;;8.30;92.00;;;;;;5058709;28;20120;-34
2021/12/10 01:38:33;;;;;;;58.28;29.20;;;8.30;92.00;;;;;;5058853;28;20474;-37
2021/12/10 01:41:01;;;;;;;52.35;28.90;;;8.30;92.00;;;;;;5058998;28;20029;-45
2021/12/10 01:43:31;;;;;;;53.08;28.42;;;8.30;92.00;;;;;;5058374;28;20044;-45
2021/12/10 01:46:06;;;;;;;56.15;27.48;;;8.30;92.00;;;;;;5059064;28;20090;-45
2021/12/10 01:48:36;;;;;;;61.88;31.20;;;8.30;92.00;;;;;;5058313;28;20036;-34
2021/12/10 01:51:03;;;;;;;56.03;27.47;;;8.30;92.00;;;;;;5058365;28;20060;-34
2021/12/10 01:53:32;;;;;;;55.25;27.08;;;8.30;92.10;;;;;;5058368;28;20063;-45
2021/12/10 01:56:02;;;;;;;52.13;26.35;;;8.30;92.10;;;;;;5058107;28;20040;-35
2021/12/10 01:58:30;;;;;;;55.08;30.00;;;8.30;92.10;;;;;;5058086;28;20108;-33
2021/12/10 02:01:12;;;;;;;59.42;32.95;;;8.30;92.00;;;;;;5058616;28;20088;-45
2021/12/10 02:03:38;;;;;;;57.65;30.48;;;8.30;92.00;;;;;;5057756;28;20029;-37
2021/12/10 02:06:06;;;;;;;55.95;30.65;;;8.30;92.00;;;;;;5058156;28;20037;-34
2021/12/10 02:08:32;;;;;;;53.30;27.13;;;8.20;92.10;;;;;;5058101;28;20499;-44
2021/12/10 02:10:59;;;;;;;42.03;22.35;;;8.30;92.10;;;;;;5058000;28;20060;-35
2021/12/10 02:13:25;;;;;;;35.22;19.17;;;8.30;92.00;;;;;;5058185;28;20037;-34
2021/12/10 02:15:51;;;;;;;38.92;17.48;;;8.30;91.90;;;;;;5058371;28;20029;-34
2021/12/10 02:18:17;;;;;;;36.72;16.88;;;8.20;91.90;;;;;;5057837;28;20036;-44
2021/12/10 02:21:01;;;;;;;46.72;17.55;;;8.20;92.00;;;;;;5056380;28;20145;-33
2021/12/10 02:23:33;;;;;;;37.80;17.42;;;8.20;91.90;;;;;;5058012;28;20067;-32
2021/12/10 02:26:03;;;;;;;40.03;18.17;;;8.20;92.00;;;;;;5057697;28;20068;-45
2021/12/10 02:28:29;;;;;;;36.58;17.83;;;8.10;91.90;;;;;;5057795;28;20063;-33
2021/12/10 02:30:56;;;;;;;44.53;16.33;;;8.10;92.00;;;;;;5058142;28;20432;-32
2021/12/10 02:33:22;;;;;;;36.92;15.57;;;8.10;92.30;;;;;;5057871;28;20027;-44
2021/12/10 02:35:48;;;;;;;46.40;17.13;;;8.10;92.20;;;;;;5058027;28;20481;-33
2021/12/10 02:38:19;;;;;;;44.13;17.00;;;8.00;92.20;;;;;;5057334;28;20295;-32
2021/12/10 02:40:48;;;;;;;46.15;18.25;;;8.00;92.30;;;;;;5057860;28;20041;-32
2021/12/10 02:43:15;;;;;;;33.78;16.13;;;8.00;92.40;;;;;;5057512;28;20029;-33
2021/12/10 02:45:43;;;;;;;55.08;19.45;;;8.00;92.50;;;;;;5057614;28;20036;-45
2021/12/10 02:48:09;;;;;;;48.95;19.42;;;8.00;92.60;;;;;;5057739;28;20036;-32
2021/12/10 02:50:35;;;;;;;57.55;26.27;;;8.00;92.60;;;;;;5056744;28;20049;-32
2021/12/10 02:53:03;;;;;;;91.95;42.13;;;8.00;92.60;;;;;;5057369;28;20313;-34
2021/12/10 02:55:31;;;;;;;71.63;38.10;;;8.00;92.70;;;;;;5056974;28;20351;-32
2021/12/10 02:58:00;;;;;;;91.32;47.70;;;8.00;92.60;;;;;;5057486;28;20363;-33
2021/12/10 03:00:31;;;;;;;86.75;48.30;;;8.00;92.50;;;;;;5057235;28;20037;-33
2021/12/10 03:02:57;;;;;;;85.30;46.85;;;8.00;92.40;;;;;;5057379;28;20025;-32
2021/12/10 03:05:23;;;;;;;91.07;50.35;;;8.00;92.50;;;;;;5057176;28;20041;-34
2021/12/10 03:07:49;;;;;;;82.22;50.65;;;8.00;92.40;;;;;;5057296;28;20040;-44
2021/12/10 03:10:19;;;;;;;68.70;41.90;;;8.00;92.40;;;;;;5057075;28;20051;-32
2021/12/10 03:12:45;;;;;;;75.05;45.40;;;8.00;92.30;;;;;;5057171;28;20112;-35
2021/12/10 03:15:12;;;;;;;47.80;28.92;;;8.00;92.20;;;;;;5056858;28;20033;-45
2021/12/10 03:17:38;;;;;;;43.50;24.33;;;8.00;92.20;;;;;;5057076;28;20313;-33
2021/12/10 03:20:09;;;;;;;57.35;33.67;;;8.00;92.10;;;;;;5056739;28;20116;-45
2021/12/10 03:22:37;;;;;;;37.97;22.30;;;8.00;92.30;;;;;;5056941;28;20031;-32
2021/12/10 03:25:05;;;;;;;45.60;26.17;;;8.00;92.20;;;;;;5056813;28;20131;-34
2021/12/10 03:27:31;;;;;;;49.53;32.10;;;8.00;92.20;;;;;;5056937;28;20047;-45
2021/12/10 03:29:57;;;;;;;36.75;21.27;;;8.00;92.10;;;;;;5056531;28;20412;-45
2021/12/10 03:32:29;;;;;;;33.25;19.80;;;8.00;92.00;;;;;;5056483;28;20481;-45
2021/12/10 03:34:56;;;;;;;29.58;17.80;;;8.00;92.00;;;;;;5056583;28;20039;-45
2021/12/10 03:37:22;;;;;;;28.30;17.30;;;8.00;92.00;;;;;;5056433;28;20067;-45
2021/12/10 03:39:50;;;;;;;41.60;23.52;;;8.00;92.00;;;;;;5056404;28;20057;-32
2021/12/10 03:42:16;;;;;;;57.63;35.72;;;8.00;92.00;;;;;;5056414;28;20023;-36
2021/12/10 03:44:42;;;;;;;64.63;41.08;;;8.00;91.90;;;;;;5056321;28;20457;-33
2021/12/10 03:47:09;;;;;;;57.75;38.55;;;8.00;91.80;;;;;;5056317;28;20049;-35
2021/12/10 03:49:36;;;;;;;58.92;38.30;;;8.00;91.90;;;;;;5055757;28;20506;-44
2021/12/10 03:52:03;;;;;;;56.88;37.33;;;8.00;91.90;;;;;;5056331;28;20021;-33
2021/12/10 03:54:30;;;;;;;58.10;37.45;;;8.00;91.90;;;;;;5056091;28;20036;-35
2021/12/10 03:56:56;;;;;;;55.55;37.22;;;8.10;91.90;;;;;;5056518;28;20059;-45
2021/12/10 03:59:23;;;;;;;36.35;22.85;;;8.10;91.90;;;;;;5055866;28;20137;-47
2021/12/10 04:01:52;;;;;;;45.33;28.88;;;8.10;91.80;;;;;;5056167;28;20052;-45
2021/12/10 04:04:29;;;;;;;38.50;25.88;;;8.10;91.70;;;;;;5055927;28;20325;-45
2021/12/10 04:06:57;;;;;;;46.10;26.25;;;8.10;91.70;;;;;;5055316;28;20317;-34
2021/12/10 04:09:25;;;;;;;41.65;25.70;;;8.10;91.70;;;;;;5055850;28;20041;-33
2021/12/10 04:11:51;;;;;;;44.03;25.38;;;8.10;91.70;;;;;;5055887;28;20037;-45
2021/12/10 04:14:18;;;;;;;47.92;25.45;;;8.10;91.60;;;;;;5055610;28;20049;-35
2021/12/10 04:16:44;;;;;;;46.53;25.70;;;8.10;91.60;;;;;;5055854;28;20023;-34
2021/12/10 04:19:13;;;;;;;48.97;24.52;;;8.10;91.50;;;;;;5055560;28;20033;-44
2021/12/10 04:21:41;;;;;;;42.03;21.70;;;8.10;91.50;;;;;;5055759;28;20033;-46
2021/12/10 04:24:14;;;;;;;35.88;19.10;;;8.10;91.50;;;;;;5055554;28;20037;-45
2021/12/10 04:26:41;;;;;;;33.13;17.88;;;8.10;91.50;;;;;;5055700;28;20108;-45
2021/12/10 04:29:06;;;;;;;30.00;16.00;;;8.10;91.40;;;;;;5055701;28;20394;-45
2021/12/10 04:31:33;;;;;;;26.63;15.20;;;8.10;91.20;;;;;;5056006;28;20035;-33
2021/12/10 04:33:59;;;;;;;25.35;13.68;;;8.10;91.10;;;;;;5055280;28;20025;-45
2021/12/10 04:36:25;;;;;;;25.23;13.85;;;8.10;90.90;;;;;;5055679;28;20029;-46
2021/12/10 04:38:50;;;;;;;26.70;14.40;;;8.00;90.80;;;;;;5055262;28;20021;-34
2021/12/10 04:41:16;;;;;;;25.88;14.65;;;8.00;90.50;;;;;;5056007;28;20021;-37
2021/12/10 04:43:44;;;;;;;23.52;13.63;;;8.00;90.40;;;;;;5055451;28;20410;-46
2021/12/10 04:46:10;;;;;;;26.30;14.75;;;7.90;90.40;;;;;;5055598;28;20029;-33
2021/12/10 04:49:08;;;;;;;30.77;15.55;;;7.90;90.40;;;;;;5055398;28;20037;-34
2021/12/10 04:51:43;;;;;;;27.52;14.85;;;7.80;90.20;;;;;;5054934;28;20111;-45
2021/12/10 04:54:11;;;;;;;28.55;15.07;;;7.80;90.30;;;;;;5055404;28;20036;-45
2021/12/10 04:56:39;;;;;;;30.08;16.25;;;7.70;90.30;;;;;;5055245;28;20031;-45
2021/12/10 04:59:08;;;;;;;30.17;15.88;;;7.70;90.40;;;;;;5055151;28;20029;-34
2021/12/10 05:01:36;;;;;;;32.90;18.33;;;7.60;90.40;;;;;;5055545;28;20037;-33
2021/12/10 05:04:05;;;;;;;30.48;16.75;;;7.60;90.50;;;;;;5054043;28;20388;-43
2021/12/10 05:06:31;;;;;;;35.85;17.70;;;7.60;90.60;;;;;;5055329;28;20460;-46
2021/12/10 05:08:57;;;;;;;38.60;19.38;;;7.60;90.70;;;;;;5054667;28;20038;-34
2021/12/10 05:11:23;;;;;;;39.88;21.70;;;7.60;90.80;;;;;;5055377;28;20079;-45
2021/12/10 05:13:48;;;;;;;36.63;20.05;;;7.50;90.90;;;;;;5054812;28;20029;-33
2021/12/10 05:16:15;;;;;;;40.75;20.77;;;7.50;90.90;;;;;;5055588;28;20033;-45
2021/12/10 05:18:46;;;;;;;37.05;19.95;;;7.50;90.90;;;;;;5056805;28;20087;-46
2021/12/10 05:21:13;;;;;;;39.45;20.40;;;7.50;90.90;;;;;;5059123;28;20060;-33
2021/12/10 05:23:39;;;;;;;37.67;20.15;;;7.50;90.90;;;;;;5058507;28;20052;-45
2021/12/10 05:26:07;;;;;;;33.53;19.48;;;7.50;90.80;;;;;;5059037;28;20033;-44
2021/12/10 05:28:33;;;;;;;32.45;18.58;;;7.50;90.70;;;;;;5058416;28;20033;-34
2021/12/10 05:30:59;;;;;;;29.55;17.65;;;7.50;90.70;;;;;;5058921;28;20033;-33
2021/12/10 05:33:28;;;;;;;34.67;18.55;;;7.50;90.60;;;;;;5058421;28;20053;-36
2021/12/10 05:35:54;;;;;;;32.08;17.85;;;7.50;90.50;;;;;;5058897;28;20029;-38
2021/12/10 05:38:21;;;;;;;50.35;26.45;;;7.50;90.50;;;;;;5058217;28;20025;-45
2021/12/10 05:40:49;;;;;;;59.30;32.83;;;7.40;90.50;;;;;;5058831;28;20036;-45
2021/12/10 05:43:16;;;;;;;57.42;29.98;;;7.40;90.50;;;;;;5058759;28;20025;-45
2021/12/10 05:45:42;;;;;;;53.85;27.00;;;7.40;90.60;;;;;;5058485;28;20382;-45
2021/12/10 05:48:08;;;;;;;45.55;24.25;;;7.40;90.70;;;;;;5058597;28;20033;-34
2021/12/10 05:50:35;;;;;;;44.00;25.75;;;7.40;90.80;;;;;;5057580;28;20084;-32
2021/12/10 05:53:02;;;;;;;49.45;25.67;;;7.40;90.70;;;;;;5058460;28;20082;-32
2021/12/10 05:55:28;;;;;;;36.85;19.73;;;7.40;90.60;;;;;;5058278;28;20086;-32
2021/12/10 05:57:54;;;;;;;33.35;18.05;;;7.30;90.30;;;;;;5058448;28;20328;-44
2021/12/10 06:00:29;;;;;;;43.65;21.77;;;7.30;90.20;;;;;;5058282;28;20033;-46
2021/12/10 06:02:55;;;;;;;39.25;20.50;;;7.20;90.30;;;;;;5057780;28;20055;-32
2021/12/10 06:05:21;;;;;;;36.55;19.13;;;7.20;90.50;;;;;;5057957;28;20123;-44
2021/12/10 06:07:47;;;;;;;39.50;19.20;;;7.20;90.60;;;;;;5058189;28;20111;-44
2021/12/10 06:10:15;;;;;;;40.15;19.38;;;7.10;90.60;;;;;;5057804;28;20440;-45
2021/12/10 06:12:42;;;;;;;36.63;17.77;;;7.10;90.70;;;;;;5057939;28;20112;-45
2021/12/10 06:15:09;;;;;;;42.70;19.70;;;7.00;90.90;;;;;;5057592;28;20037;-44
2021/12/10 06:17:35;;;;;;;39.25;20.50;;;7.00;91.00;;;;;;5057893;28;20053;-34
2021/12/10 06:20:01;;;;;;;41.42;20.08;;;7.00;91.10;;;;;;5057642;28;20043;-44
2021/12/10 06:22:27;;;;;;;39.03;19.15;;;6.90;91.20;;;;;;5058118;28;20025;-32
2021/12/10 06:24:53;;;;;;;41.28;20.02;;;6.90;91.30;;;;;;5057534;28;20083;-32
2021/12/10 06:27:18;;;;;;;42.28;21.90;;;6.90;91.40;;;;;;5057572;28;20035;-35
2021/12/10 06:29:44;;;;;;;44.15;21.70;;;6.90;91.50;;;;;;5056391;28;20076;-45
2021/12/10 06:32:11;;;;;;;54.67;22.35;;;6.90;91.50;;;;;;5057392;28;20136;-44
2021/12/10 06:34:37;;;;;;;39.88;21.58;;;6.90;91.70;;;;;;5056842;28;20073;-34
2021/12/10 06:37:05;;;;;;;45.60;21.08;;;6.90;91.80;;;;;;5057947;28;20025;-32
2021/12/10 06:39:30;;;;;;;44.08;21.17;;;6.90;91.80;;;;;;5057029;28;20029;-39
2021/12/10 06:41:56;;;;;;;47.70;23.55;;;6.90;91.80;;;;;;5057249;28;20040;-47
2021/12/10 06:44:23;;;;;;;43.60;23.85;;;7.00;91.80;;;;;;5057227;28;20029;-47
2021/12/10 06:46:50;;;;;;;40.65;21.33;;;7.00;91.70;;;;;;5057205;28;20025;-47
2021/12/10 06:49:18;;;;;;;40.30;20.23;;;7.00;91.60;;;;;;5056396;28;20048;-35
2021/12/10 06:51:44;;;;;;;41.22;20.25;;;7.00;91.90;;;;;;5057337;28;20013;-47
2021/12/10 06:54:10;;;;;;;41.88;20.50;;;7.00;91.40;;;;;;5056665;28;20043;-34
2021/12/10 06:56:37;;;;;;;40.42;20.92;;;7.00;91.30;;;;;;5057332;28;20044;-34
2021/12/10 06:59:05;;;;;;;43.28;23.42;;;7.00;91.30;;;;;;5056797;28;20033;-44
2021/12/10 07:01:35;;;;;;;53.00;27.58;;;7.10;91.40;;;;;;5057143;28;20287;-32
2021/12/10 07:04:04;;;;;;;44.90;23.30;;;7.10;91.40;;;;;;5056540;28;20033;-44
2021/12/10 07:06:31;;;;;;;47.72;26.33;;;7.10;91.50;;;;;;5056859;28;20021;-45
2021/12/10 07:08:59;;;;;;;37.55;21.05;;;7.10;91.50;;;;;;5056674;28;20051;-32
2021/12/10 07:11:26;;;;;;;39.97;24.15;;;7.20;91.40;;;;;;5056723;28;20031;-44
2021/12/10 07:13:56;;;;;;;52.53;30.83;;;7.20;91.40;;;;;;5056284;28;20086;-44
2021/12/10 07:16:24;;;;;;;48.35;27.55;;;7.20;91.40;;;;;;5056771;28;20039;-32
2021/12/10 07:18:50;;;;;;;45.03;28.58;;;7.30;91.50;;;;;;5056363;28;20029;-32
2021/12/10 07:21:17;;;;;;;49.47;29.25;;;7.30;91.50;;;;;;5056392;28;20029;-33
2021/12/10 07:23:44;;;;;;;48.95;28.20;;;7.30;91.50;;;;;;5056169;28;20029;-43
2021/12/10 07:26:12;;;;;;;42.92;27.70;;;7.40;91.50;;;;;;5056468;28;20040;-44
2021/12/10 07:28:39;;;;;;;41.15;26.33;;;7.40;91.40;;;;;;5055982;28;20094;-44
2021/12/10 07:31:06;;;;;;;41.53;26.08;;;7.50;91.30;;;;;;5056395;28;20032;-34
2021/12/10 07:33:32;;;;;;;44.00;25.30;;;7.50;91.10;;;;;;5056131;28;20029;-44
2021/12/10 07:35:58;;;;;;;38.42;23.55;;;7.60;91.00;;;;;;5056573;28;20439;-32
2021/12/10 07:38:24;;;;;;;43.28;27.65;;;7.60;90.80;;;;;;5055751;28;20025;-35
2021/12/10 07:40:50;;;;;;;42.40;25.65;;;7.60;90.60;;;;;;5056306;28;20116;-36
2021/12/10 07:43:16;;;;;;;40.78;23.60;;;7.60;90.50;;;;;;5055804;28;20040;-32
2021/12/10 07:45:46;;;;;;;39.28;23.20;;;7.60;90.40;;;;;;5055788;28;20287;-32
2021/12/10 07:48:16;;;;;;;40.60;24.33;;;7.60;90.30;;;;;;5056197;28;20052;-44
2021/12/10 07:50:50;;;;;;;42.08;23.83;;;7.60;90.30;;;;;;5055354;28;20052;-33
2021/12/10 07:53:19;;;;;;;35.15;19.60;;;7.60;90.30;;;;;;5056272;28;20029;-44
2021/12/10 07:55:45;;;;;;;43.88;23.85;;;7.70;90.20;;;;;;5056325;28;20037;-44
2021/12/10 07:58:10;;;;;;;37.13;22.42;;;7.70;90.20;;;;;;5055908;28;20027;-45
2021/12/10 08:00:40;;;;;;;39.17;22.85;;;7.70;90.20;;;;;;5055912;28;20108;-45
2021/12/10 08:03:05;;;;;;;38.72;20.73;;;7.70;90.10;;;;;;5056095;28;20364;-44
2021/12/10 08:05:32;;;;;;;37.42;21.55;;;7.70;90.10;;;;;;5055858;28;20029;-45
2021/12/10 08:07:58;;;;;;;39.15;19.10;;;7.70;90.00;;;;;;5055872;28;20025;-44
2021/12/10 08:10:25;;;;;;;35.58;19.70;;;7.70;90.00;;;;;;5055438;28;20079;-32
2021/12/10 08:12:50;;;;;;;39.17;24.98;;;7.80;89.90;;;;;;5055684;28;20032;-33
2021/12/10 08:15:16;;;;;;;61.67;42.60;;;7.80;89.90;;;;;;5055463;28;20325;-44
2021/12/10 08:17:44;;;;;;;42.42;25.80;;;7.80;89.60;;;;;;5055897;28;20031;-45
2021/12/10 08:20:13;;;;;;;42.25;23.83;;;7.80;89.50;;;;;;5055462;28;20047;-44
2021/12/10 08:22:39;;;;;;;41.25;24.75;;;7.90;89.50;;;;;;5055909;28;20029;-45
2021/12/10 08:25:06;;;;;;;46.58;24.88;;;7.90;89.60;;;;;;5055603;28;20117;-32
2021/12/10 08:27:32;;;;;;;48.55;25.30;;;7.90;89.50;;;;;;5055164;28;20070;-33
2021/12/10 08:30:03;;;;;;;47.85;24.75;;;8.00;89.60;;;;;;5055107;28;20037;-44
2021/12/10 08:32:31;;;;;;;47.17;26.15;;;8.00;89.60;;;;;;5055582;28;20029;-44
2021/12/10 08:34:57;;;;;;;58.92;28.05;;;8.00;89.70;;;;;;5055137;28;20041;-44
2021/12/10 08:37:23;;;;;;;42.72;24.08;;;8.00;89.40;;;;;;5055622;28;20021;-34
2021/12/10 08:39:48;;;;;;;41.22;22.75;;;8.10;88.80;;;;;;5055141;28;20048;-35
2021/12/10 08:42:15;;;;;;;40.95;21.83;;;8.10;88.30;;;;;;5055519;28;20028;-47
2021/12/10 08:44:42;;;;;;;50.08;27.85;;;8.10;88.50;;;;;;5054874;28;20033;-47
2021/12/10 08:47:10;;;;;;;192.80;85.53;;;8.10;88.50;;;;;;5055348;28;20025;-35
2021/12/10 08:49:37;;;;;;;240.63;109.10;;;8.10;88.40;;;;;;5054358;28;20048;-35
2021/12/10 08:52:04;;;;;;;159.82;76.53;;;8.10;88.50;;;;;;5055183;28;20071;-35
2021/12/10 08:54:31;;;;;;;69.65;35.85;;;8.10;88.70;;;;;;5058275;28;20036;-47
2021/12/10 08:56:58;;;;;;;70.63;34.75;;;8.10;88.70;;;;;;5058270;28;20302;-36
2021/12/10 08:59:24;;;;;;;54.58;28.73;;;8.10;88.60;;;;;;5059143;28;20025;-35
2021/12/10 09:01:57;;;;;;;63.25;34.97;;;8.20;88.20;;;;;;5059270;28;20130;-36
2021/12/10 09:04:23;;;;;;;48.55;27.42;;;8.20;87.60;;;;;;5058861;28;20033;-47
2021/12/10 09:06:55;;;;;;;49.00;27.25;;;8.20;87.50;;;;;;5058918;28;20032;-35
2021/12/10 09:09:22;;;;;;;46.90;24.35;;;8.10;87.30;;;;;;5058786;28;20040;-44
2021/12/10 09:11:54;;;;;;;47.53;22.60;;;8.10;87.20;;;;;;5058965;28;20116;-34
2021/12/10 09:14:25;;;;;;;57.58;35.20;;;8.10;87.00;;;;;;5057313;28;20310;-32
2021/12/10 09:16:51;;;;;;;49.50;24.50;;;8.00;87.00;;;;;;5059202;28;20170;-44
2021/12/10 09:19:17;;;;;;;47.63;24.05;;;8.00;86.90;;;;;;5058945;28;20064;-44
2021/12/10 09:21:45;;;;;;;41.47;22.25;;;8.00;86.70;;;;;;5059063;28;20028;-44
2021/12/10 09:24:13;;;;;;;47.72;25.60;;;7.90;86.50;;;;;;5058662;28;20044;-44
2021/12/10 09:26:42;;;;;;;43.53;22.98;;;7.80;86.60;;;;;;5058620;28;20040;-44
2021/12/10 09:29:10;;;;;;;46.72;25.17;;;7.80;86.90;;;;;;5058311;28;20037;-45
2021/12/10 09:31:38;;;;;;;50.78;24.52;;;7.70;87.20;;;;;;5058900;28;20025;-32
2021/12/10 09:34:06;;;;;;;47.38;24.02;;;7.70;87.40;;;;;;5058220;28;20044;-44
2021/12/10 09:36:32;;;;;;;56.38;31.30;;;7.60;87.60;;;;;;5058567;28;20335;-44
2021/12/10 09:38:58;;;;;;;62.85;30.08;;;7.60;87.70;;;;;;5058178;28;20029;-47
2021/12/10 09:41:25;;;;;;;67.25;33.25;;;7.60;88.10;;;;;;5058786;28;20024;-33
2021/12/10 09:43:51;;;;;;;68.20;32.58;;;7.60;88.30;;;;;;5058527;28;20033;-44
2021/12/10 09:46:17;;;;;;;64.50;32.88;;;7.60;88.60;;;;;;5058440;28;20117;-44
2021/12/10 09:48:44;;;;;;;64.75;33.45;;;7.60;88.70;;;;;;5058078;28;20032;-33
2021/12/10 09:51:24;;;;;;;59.97;28.17;;;7.60;88.80;;;;;;5058204;28;20056;-32
2021/12/10 09:53:55;;;;;;;63.75;30.45;;;7.70;88.70;;;;;;5057770;28;20036;-33
2021/12/10 09:56:22;;;;;;;62.22;29.02;;;7.60;88.60;;;;;;5058501;28;20093;-32
2021/12/10 09:58:49;;;;;;;63.47;31.83;;;7.60;88.70;;;;;;5058146;28;20025;-32
2021/12/10 10:01:22;;;;;;;68.97;32.92;;;7.60;88.80;;;;;;5057862;28;20025;-33
2021/12/10 10:03:51;;;;;;;72.30;33.70;;;7.60;88.80;;;;;;5057281;28;20087;-45
2021/12/10 10:06:18;;;;;;;71.82;36.33;;;7.60;89.00;;;;;;5056930;28;20053;-44
2021/12/10 10:08:45;;;;;;;80.20;39.90;;;7.60;89.30;;;;;;5057078;28;20380;-35
2021/12/10 10:11:19;;;;;;;76.28;35.03;;;7.60;89.40;;;;;;5057690;28;20410;-47
2021/12/10 10:13:48;;;;;;;87.18;45.22;;;7.60;89.20;;;;;;5057075;28;20052;-37
2021/12/10 10:16:15;;;;;;;76.78;37.78;;;7.60;89.10;;;;;;5057962;28;20082;-34
2021/12/10 10:18:43;;;;;;;101.30;50.30;;;7.60;89.00;;;;;;5057143;28;20095;-32
2021/12/10 10:21:34;;;;;;;149.88;66.70;;;7.60;89.00;;;;;;5057985;28;20036;-32
2021/12/10 10:24:01;;;;;;;141.60;67.03;;;7.60;88.90;;;;;;5057788;28;20044;-34
2021/12/10 10:26:34;;;;;;;148.60;70.28;;;7.60;88.80;;;;;;5057618;28;20033;-45
2021/12/10 10:29:04;;;;;;;111.15;56.30;;;7.60;88.90;;;;;;5057669;28;20373;-44
2021/12/10 10:31:29;;;;;;;108.07;51.00;;;7.50;89.00;;;;;;5057263;28;20090;-45
2021/12/10 10:33:57;;;;;;;104.45;53.33;;;7.50;88.90;;;;;;5056969;28;20414;-33
2021/12/10 10:36:27;;;;;;;112.55;54.30;;;7.50;89.10;;;;;;5057087;28;20398;-44
2021/12/10 10:38:58;;;;;;;95.53;44.60;;;7.50;89.20;;;;;;5057188;28;20075;-44
2021/12/10 10:41:25;;;;;;;;;;;7.50;89.40;;;;;;5057749;28;20037;-32
2021/12/10 10:43:51;;;;;;;95.75;44.72;;;7.50;89.30;;;;;;5056945;28;19908;-32
2021/12/10 10:46:17;;;;;;;83.25;39.92;;;7.50;89.70;;;;;;5057248;28;20071;-44
2021/12/10 10:48:48;;;;;;;82.75;39.67;;;7.40;89.90;;;;;;5056683;28;20025;-44
2021/12/10 10:51:18;;;;;;;85.25;38.83;;;7.50;90.00;;;;;;5056660;28;20111;-44
2021/12/10 10:53:48;;;;;;;78.13;37.35;;;7.50;90.10;;;;;;5056630;28;20055;-45
2021/12/10 10:56:39;;;;;;;69.30;34.80;;;7.50;90.10;;;;;;5057181;28;20071;-44
2021/12/10 10:59:23;;;;;;;67.88;33.95;;;7.50;89.90;;;;;;5056585;28;20029;-32
2021/12/10 11:01:58;;;;;;;83.07;39.08;;;7.50;89.90;;;;;;5057109;28;20055;-45
2021/12/10 11:04:31;;;;;;;77.68;36.97;;;7.50;90.00;;;;;;5056507;28;20298;-34
2021/12/10 11:07:04;;;;;;;73.97;35.45;;;7.50;90.00;;;;;;5056443;28;20422;-33
2021/12/10 11:09:32;;;;;;;67.45;33.53;;;7.60;90.10;;;;;;5056167;28;20041;-32
2021/12/10 11:12:12;;;;;;;65.47;32.38;;;7.60;90.10;;;;;;5056785;28;20029;-44
2021/12/10 11:14:43;;;;;;;62.30;29.50;;;7.60;90.10;;;;;;5056375;28;20079;-32
2021/12/10 11:17:16;;;;;;;63.40;29.08;;;7.60;90.20;;;;;;5056189;28;20029;-45
2021/12/10 11:19:51;;;;;;;54.38;26.42;;;7.60;90.20;;;;;;5056425;28;20048;-33
2021/12/10 11:22:17;;;;;;;55.17;28.65;;;7.60;90.20;;;;;;5056625;28;20104;-41
2021/12/10 11:24:47;;;;;;;59.25;28.15;;;7.60;90.30;;;;;;5056396;28;20115;-32
2021/12/10 11:27:33;;;;;;;62.40;32.45;;;7.60;90.40;;;;;;5056405;28;20029;-33
2021/12/10 11:30:02;;;;;;;59.55;30.17;;;7.60;90.40;;;;;;5056335;28;20029;-44
2021/12/10 11:32:33;;;;;;;67.78;34.97;;;7.60;90.50;;;;;;5056091;28;20029;-33
2021/12/10 11:35:01;;;;;;;;;;;7.70;90.70;;;;;;5056610;28;20029;-32
2021/12/10 11:37:39;;;;;;;63.15;35.33;;;7.70;90.40;;;;;;5056181;28;19912;-34
2021/12/10 11:40:08;;;;;;;56.28;27.15;;;7.60;90.60;;;;;;5055987;28;20037;-33
2021/12/10 11:42:40;;;;;;;59.20;30.48;;;7.70;90.70;;;;;;5056225;28;20040;-44
2021/12/10 11:45:41;;;;;;;69.35;37.13;;;7.60;90.80;;;;;;5056120;28;20096;-44
2021/12/10 11:48:13;;;;;;;62.25;33.83;;;7.70;90.80;;;;;;5056010;28;20104;-44
2021/12/10 11:50:44;;;;;;;46.28;25.55;;;7.70;91.00;;;;;;5055380;28;20052;-44
2021/12/10 11:53:17;;;;;;;49.55;27.23;;;7.70;91.10;;;;;;5055503;28;20032;-44
2021/12/10 11:55:59;;;;;;;46.78;25.85;;;7.70;91.20;;;;;;5055911;28;20095;-32
2021/12/10 11:58:25;;;;;;;48.97;26.63;;;7.80;91.20;;;;;;5055688;28;20104;-32
2021/12/10 12:00:52;;;;;;;40.47;23.23;;;7.80;91.20;;;;;;5055994;28;20325;-44
2021/12/10 12:03:20;;;;;;;47.72;26.88;;;7.80;91.30;;;;;;5055638;28;20041;-33
2021/12/10 12:05:48;;;;;;;45.03;27.23;;;7.90;91.30;;;;;;5055889;28;20029;-44
2021/12/10 12:08:18;;;;;;;49.50;27.05;;;7.90;91.20;;;;;;5055591;28;20043;-45
2021/12/10 12:10:48;;;;;;;42.10;23.50;;;7.90;91.20;;;;;;5055626;28;20421;-45
2021/12/10 12:13:49;;;;;;;42.90;24.23;;;8.00;91.30;;;;;;5055948;28;20039;-33
2021/12/10 12:16:16;;;;;;;52.35;29.88;;;8.00;91.20;;;;;;5055448;28;20029;-44
2021/12/10 12:18:52;;;;;;;52.22;29.13;;;8.10;91.10;;;;;;5055569;28;20059;-45
2021/12/10 12:27:12;;;;;;;53.35;31.42;;;8.20;90.80;;;;;;5055369;28;20254;-32
2021/12/10 12:29:55;;;;;;;45.63;26.60;;;8.20;90.60;;;;;;5054838;28;20060;-44
2021/12/10 12:32:24;;;;;;;47.72;30.60;;;8.20;90.60;;;;;;5055298;28;20078;-34
2021/12/10 12:34:51;;;;;;;38.45;22.90;;;8.20;90.50;;;;;;5054937;28;20032;-44
2021/12/10 12:37:19;;;;;;;35.30;21.98;;;8.20;90.30;;;;;;5055205;28;20074;-33
2021/12/10 12:39:48;;;;;;;41.60;23.23;;;8.20;90.20;;;;;;5055470;28;20090;-32
2021/12/10 12:42:22;;;;;;;33.70;21.42;;;8.20;90.10;;;;;;5054777;28;20040;-44
2021/12/10 12:45:23;;;;;;;35.83;22.65;;;8.20;90.00;;;;;;5052460;28;20037;-44
2021/12/10 12:47:51;;;;;;;;;;;8.20;89.80;;;;;;5053246;28;20117;-32
2021/12/10 12:50:22;;;;;;;51.40;30.63;;;8.10;89.60;;;;;;5054246;28;20331;-32
2021/12/10 12:53:13;;;;;;;52.15;30.73;;;8.00;90.00;;;;;;5054846;28;20033;-32
2021/12/10 12:56:05;;;;;;;42.13;23.75;;;8.00;90.00;;;;;;5055176;28;20029;-44
2021/12/10 12:59:00;;;;;;;58.13;34.72;;;8.00;90.00;;;;;;5054608;28;20057;-32
2021/12/10 13:01:34;;;;;;;39.05;24.98;;;8.00;90.10;;;;;;5054837;28;20037;-33
2021/12/10 13:03:59;;;;;;;38.40;25.80;;;7.90;90.20;;;;;;5054358;28;20037;-33